createdAt,value
2019-02-14T00:02:11.910Z,3.09
2019-02-14T00:05:16.456Z,3.21
2019-02-14T00:08:19.119Z,3.15
2019-02-14T00:11:24.654Z,3.17
2019-02-14T00:14:27.233Z,3.04
2019-02-14T00:17:29.939Z,2.97
2019-02-14T00:20:32.610Z,3.09
2019-02-14T00:23:35.354Z,3.01
2019-02-14T00:26:38.028Z,3.06
2019-02-14T00:29:40.710Z,3.27
2019-02-14T00:32:43.339Z,3.29
2019-02-14T00:35:46.052Z,3.35
2019-02-14T00:38:48.873Z,3.33
2019-02-14T00:41:51.640Z,3.28
2019-02-14T00:44:54.423Z,3.13
2019-02-14T00:47:57.175Z,3.08
2019-02-14T00:50:59.810Z,3.47
2019-02-14T00:54:02.482Z,3.39
2019-02-14T00:57:07.073Z,3.32
2019-02-14T01:00:10.054Z,3.44
2019-02-14T01:03:12.735Z,3.56
2019-02-14T01:06:15.346Z,3.78
2019-02-14T01:09:18.178Z,3.89
2019-02-14T01:12:20.843Z,3.86
2019-02-14T01:15:24.948Z,3.99
2019-02-14T01:18:27.734Z,3.95
2019-02-14T01:21:30.328Z,3.91
2019-02-14T01:24:32.947Z,3.86
2019-02-14T01:27:36.632Z,3.67
2019-02-14T01:30:40.284Z,3.54
2019-02-14T01:33:42.878Z,3.50
2019-02-14T01:36:45.429Z,3.47
2019-02-14T01:39:48.059Z,3.58
2019-02-14T01:42:50.738Z,3.72
2019-02-14T01:45:53.347Z,3.74
2019-02-14T01:48:55.939Z,3.53
2019-02-14T01:51:58.683Z,3.50
2019-02-14T01:55:01.367Z,3.33
2019-02-14T01:58:04.955Z,3.16
2019-02-14T02:01:07.619Z,3.04
2019-02-14T02:04:10.243Z,3.23
2019-02-14T02:07:12.808Z,3.14
2019-02-14T02:10:15.448Z,3.00
2019-02-14T02:13:18.491Z,3.00
2019-02-14T02:16:21.167Z,3.05
2019-02-14T02:19:23.967Z,2.87
2019-02-14T02:22:27.614Z,3.01
2019-02-14T02:25:30.203Z,3.10
2019-02-14T02:28:33.475Z,3.10
2019-02-14T02:31:36.016Z,3.15
2019-02-14T02:34:38.713Z,3.25
2019-02-14T02:37:41.367Z,3.23
2019-02-14T02:40:43.988Z,3.10
2019-02-14T02:43:46.735Z,3.11
2019-02-14T02:46:49.299Z,3.33
2019-02-14T02:49:51.898Z,3.20
2019-02-14T02:52:54.468Z,3.26
2019-02-14T02:55:57.028Z,3.21
2019-02-14T02:58:59.696Z,3.01
2019-02-14T03:02:02.309Z,3.33
2019-02-14T03:05:05.438Z,3.26
2019-02-14T03:08:07.978Z,3.32
2019-02-14T03:11:10.759Z,3.12
2019-02-14T03:14:13.328Z,2.94
2019-02-14T03:17:16.232Z,2.80
2019-02-14T03:20:18.877Z,2.61
2019-02-14T03:23:21.602Z,2.78
2019-02-14T03:26:26.015Z,2.66
2019-02-14T03:29:28.692Z,2.84
2019-02-14T03:32:31.432Z,2.85
2019-02-14T03:35:34.065Z,2.73
2019-02-14T03:38:37.512Z,2.87
2019-02-14T03:41:40.652Z,2.78
2019-02-14T03:44:43.336Z,2.98
2019-02-14T03:47:46.022Z,3.13
2019-02-14T03:50:48.671Z,2.97
2019-02-14T03:53:51.280Z,2.88
2019-02-14T03:56:53.858Z,2.87
2019-02-14T03:59:56.557Z,2.89
2019-02-14T04:03:00.101Z,2.97
2019-02-14T04:06:02.814Z,2.82
2019-02-14T04:09:07.225Z,2.73
2019-02-14T04:12:09.912Z,2.57
2019-02-14T04:15:13.799Z,2.57
2019-02-14T04:18:16.429Z,2.58
2019-02-14T04:21:19.159Z,2.86
2019-02-14T04:24:21.792Z,3.21
2019-02-14T04:27:24.469Z,3.01
2019-02-14T04:30:27.108Z,2.95
2019-02-14T04:33:29.668Z,2.95
2019-02-14T04:36:36.106Z,2.84
2019-02-14T04:39:36.833Z,2.80
2019-02-14T04:42:39.464Z,2.79
2019-02-14T04:45:43.096Z,2.83
2019-02-14T04:48:45.892Z,2.74
2019-02-14T04:51:52.433Z,2.79
2019-02-14T04:54:55.096Z,2.68
2019-02-14T04:57:59.471Z,2.58
2019-02-14T05:01:02.078Z,2.65
2019-02-14T05:04:04.877Z,2.66
2019-02-14T05:07:07.526Z,2.70
2019-02-14T05:10:10.362Z,2.73
2019-02-14T05:13:13.021Z,2.69
2019-02-14T05:16:30.011Z,2.65
2019-02-14T05:19:32.608Z,2.82
2019-02-14T05:22:35.197Z,2.66
2019-02-14T05:25:37.862Z,2.64
2019-02-14T05:28:40.593Z,2.51
2019-02-14T05:31:43.293Z,2.52
2019-02-14T05:34:45.913Z,2.62
2019-02-14T05:37:48.592Z,2.71
2019-02-14T05:40:51.382Z,2.76
2019-02-14T05:43:54.031Z,2.69
2019-02-14T05:46:56.762Z,2.62
2019-02-14T05:49:59.327Z,2.59
2019-02-14T05:53:02.033Z,2.59
2019-02-14T05:56:04.673Z,2.73
2019-02-14T05:59:07.324Z,2.76
2019-02-14T06:05:40.363Z,2.56
2019-02-14T06:08:43.047Z,2.66
2019-02-14T06:11:49.677Z,2.65
2019-02-14T06:14:52.226Z,2.70
2019-02-14T06:17:54.928Z,2.84
2019-02-14T06:20:57.699Z,2.87
2019-02-14T06:24:00.482Z,3.01
2019-02-14T06:27:03.130Z,3.15
2019-02-14T06:30:07.629Z,3.25
2019-02-14T06:33:10.178Z,3.21
2019-02-14T06:36:13.787Z,3.11
2019-02-14T06:39:17.774Z,3.16
2019-02-14T06:42:20.543Z,3.15
2019-02-14T06:45:23.267Z,3.27
2019-02-14T06:48:25.826Z,3.19
2019-02-14T06:51:28.448Z,3.33
2019-02-14T06:54:31.051Z,3.27
2019-02-14T06:57:33.792Z,3.29
2019-02-14T07:00:37.347Z,3.34
2019-02-14T07:03:40.054Z,3.43
2019-02-14T07:06:42.712Z,3.46
2019-02-14T07:09:45.306Z,3.54
2019-02-14T07:12:47.930Z,3.60
2019-02-14T07:15:50.565Z,3.82
2019-02-14T07:18:53.297Z,4.01
2019-02-14T07:21:55.905Z,4.29
2019-02-14T07:24:58.660Z,4.14
2019-02-14T07:28:01.387Z,4.15
2019-02-14T07:31:03.916Z,4.38
2019-02-14T07:34:06.477Z,4.58
2019-02-14T07:37:11.311Z,4.59
2019-02-14T07:40:13.996Z,4.56
2019-02-14T07:43:16.593Z,4.64
2019-02-14T07:46:22.679Z,4.87
2019-02-14T07:49:23.668Z,4.81
2019-02-14T07:52:26.303Z,4.88
2019-02-14T07:55:28.900Z,4.80
2019-02-14T07:58:31.476Z,4.72
2019-02-14T08:01:34.309Z,4.89
2019-02-14T08:04:36.867Z,4.86
2019-02-14T08:07:39.465Z,4.96
2019-02-14T08:10:42.066Z,4.95
2019-02-14T08:13:45.615Z,5.25
2019-02-14T08:16:48.246Z,5.39
2019-02-14T08:19:50.846Z,5.50
2019-02-14T08:22:53.685Z,5.64
2019-02-14T08:25:56.421Z,5.42
2019-02-14T08:28:59.122Z,5.15
2019-02-14T08:32:01.819Z,5.32
2019-02-14T08:35:06.500Z,5.34
2019-02-14T08:38:10.172Z,5.56
2019-02-14T08:41:13.077Z,5.89
2019-02-14T08:44:15.786Z,5.98
2019-02-14T08:47:18.524Z,5.98
2019-02-14T08:50:21.268Z,5.98
2019-02-14T08:53:23.990Z,6.35
2019-02-14T08:56:26.670Z,6.81
2019-02-14T08:59:29.312Z,6.90
2019-02-14T09:02:32.019Z,6.69
2019-02-14T09:05:34.701Z,6.51
2019-02-14T09:08:37.337Z,6.41
2019-02-14T09:11:40.016Z,6.41
2019-02-14T09:14:42.577Z,6.42
2019-02-14T09:17:45.467Z,7.04
2019-02-14T09:20:48.151Z,7.20
2019-02-14T09:23:50.797Z,6.98
2019-02-14T09:26:53.512Z,7.37
2019-02-14T09:29:56.162Z,7.65
2019-02-14T09:32:58.840Z,7.41
2019-02-14T09:36:01.641Z,7.29
2019-02-14T09:39:05.276Z,7.34
2019-02-14T09:42:07.961Z,6.89
2019-02-14T09:45:10.820Z,7.12
2019-02-14T09:48:13.466Z,7.27
2019-02-14T09:51:16.165Z,7.33
2019-02-14T09:54:18.838Z,7.41
2019-02-14T09:57:21.631Z,7.34
2019-02-14T10:00:24.496Z,7.03
2019-02-14T10:03:27.151Z,6.97
2019-02-14T10:06:36.297Z,7.04
2019-02-14T10:09:34.209Z,6.86
2019-02-14T10:12:36.792Z,6.64
2019-02-14T10:15:39.420Z,6.39
2019-02-14T10:18:41.963Z,6.40
2019-02-14T10:21:47.561Z,6.21
2019-02-14T10:24:52.464Z,6.16
2019-02-14T10:27:54.786Z,6.19
2019-02-14T10:30:57.463Z,6.50
2019-02-14T10:34:00.067Z,6.31
2019-02-14T10:37:02.768Z,6.39
2019-02-14T10:40:06.742Z,6.39
2019-02-14T10:43:09.353Z,6.48
2019-02-14T10:46:12.215Z,6.64
2019-02-14T10:49:16.311Z,6.73
2019-02-14T10:52:18.931Z,6.99
2019-02-14T10:55:21.626Z,6.94
2019-02-14T10:58:24.178Z,6.88
2019-02-14T11:01:26.873Z,6.87
2019-02-14T11:04:29.537Z,6.97
2019-02-14T11:07:32.103Z,7.16
2019-02-14T11:10:34.816Z,7.16
2019-02-14T11:13:37.471Z,7.10
2019-02-14T11:16:40.134Z,7.19
2019-02-14T11:19:42.675Z,7.20
2019-02-14T11:22:45.204Z,7.18
2019-02-14T11:25:48.091Z,7.34
2019-02-14T11:28:50.746Z,7.39
2019-02-14T11:31:53.349Z,7.48
2019-02-14T11:34:55.978Z,7.38
2019-02-14T11:37:58.591Z,7.43
2019-02-14T11:41:01.168Z,7.33
2019-02-14T11:44:03.977Z,7.39
2019-02-14T11:47:07.896Z,7.49
2019-02-14T11:50:11.769Z,7.65
2019-02-14T11:53:14.563Z,7.61
2019-02-14T11:56:17.303Z,7.65
2019-02-14T11:59:19.862Z,7.76
2019-02-14T12:02:22.509Z,7.70
2019-02-14T12:05:25.176Z,7.93
2019-02-14T12:08:27.766Z,7.98
2019-02-14T12:11:30.484Z,7.93
2019-02-14T12:14:33.139Z,7.91
2019-02-14T12:17:35.801Z,8.05
2019-02-14T12:20:38.618Z,8.14
2019-02-14T12:23:41.271Z,8.12
2019-02-14T12:26:43.868Z,8.17
2019-02-14T12:29:46.451Z,8.15
2019-02-14T12:32:49.246Z,8.26
2019-02-14T12:35:51.872Z,8.41
2019-02-14T12:38:56.226Z,8.43
2019-02-14T12:41:58.845Z,8.26
2019-02-14T12:45:01.466Z,8.20
2019-02-14T12:48:04.094Z,8.51
2019-02-14T12:51:06.647Z,8.50
2019-02-14T12:54:10.416Z,8.52
2019-02-14T12:57:13.090Z,8.62
2019-02-14T13:00:17.538Z,8.59
2019-02-14T13:03:20.158Z,8.67
2019-02-14T13:06:23.697Z,8.98
2019-02-14T13:09:26.226Z,8.88
2019-02-14T13:12:28.988Z,8.92
2019-02-14T13:15:31.678Z,8.87
2019-02-14T13:18:34.257Z,8.87
2019-02-14T13:21:36.974Z,8.59
2019-02-14T13:24:39.589Z,8.45
2019-02-14T13:27:42.287Z,8.53
2019-02-14T13:30:44.838Z,8.79
2019-02-14T13:33:47.508Z,8.53
2019-02-14T13:36:50.109Z,8.82
2019-02-14T13:39:52.726Z,9.01
2019-02-14T13:42:55.349Z,8.89
2019-02-14T13:45:58.036Z,9.09
2019-02-14T13:49:00.843Z,8.98
2019-02-14T13:52:03.496Z,8.75
2019-02-14T13:55:06.893Z,8.82
2019-02-14T13:58:09.528Z,8.78
2019-02-14T14:01:12.159Z,8.77
2019-02-14T14:04:14.730Z,8.70
2019-02-14T14:07:17.331Z,8.70
2019-02-14T14:10:19.900Z,8.65
2019-02-14T14:13:22.557Z,8.90
2019-02-14T14:16:25.093Z,8.82
2019-02-14T14:19:29.920Z,8.83
2019-02-14T14:22:32.162Z,8.67
2019-02-14T14:25:34.753Z,8.66
2019-02-14T14:28:37.439Z,8.90
2019-02-14T14:31:40.173Z,8.72
2019-02-14T14:34:44.369Z,9.04
2019-02-14T14:37:47.068Z,8.85
2019-02-14T14:40:49.659Z,8.81
2019-02-14T14:44:06.374Z,8.67
2019-02-14T14:47:11.777Z,8.91
2019-02-14T14:50:14.480Z,8.75
2019-02-14T14:53:17.190Z,8.66
2019-02-14T14:56:19.847Z,8.53
2019-02-14T14:59:22.564Z,8.30
2019-02-14T15:02:25.219Z,8.26
2019-02-14T15:05:27.994Z,8.31
2019-02-14T15:08:30.654Z,8.15
2019-02-14T15:11:33.408Z,8.28
2019-02-14T15:14:35.983Z,8.11
2019-02-14T15:17:38.583Z,8.26
2019-02-14T15:20:41.293Z,8.11
2019-02-14T15:23:43.962Z,7.90
2019-02-14T15:26:46.613Z,7.81
2019-02-14T15:29:49.218Z,7.87
2019-02-14T15:32:51.788Z,7.91
2019-02-14T15:35:54.343Z,7.70
2019-02-14T15:39:10.422Z,7.79
2019-02-14T15:42:13.225Z,7.65
2019-02-14T15:45:15.920Z,7.65
2019-02-14T15:48:18.511Z,7.63
2019-02-14T15:51:21.032Z,7.34
2019-02-14T15:54:23.634Z,7.69
2019-02-14T15:57:26.499Z,7.65
2019-02-14T16:00:30.749Z,7.37
2019-02-14T16:03:34.654Z,7.25
2019-02-14T16:06:37.244Z,7.02
2019-02-14T16:09:41.265Z,7.17
2019-02-14T16:12:45.876Z,6.78
2019-02-14T16:15:48.654Z,6.83
2019-02-14T16:18:51.213Z,6.66
2019-02-14T16:21:56.018Z,6.64
2019-02-14T16:24:58.639Z,6.44
2019-02-14T16:28:01.278Z,6.28
2019-02-14T16:31:03.852Z,6.14
2019-02-14T16:34:06.538Z,6.17
2019-02-14T16:37:09.249Z,6.00
2019-02-14T16:40:11.932Z,5.84
2019-02-14T16:43:14.584Z,5.78
2019-02-14T16:46:18.265Z,5.66
2019-02-14T16:49:20.847Z,5.56
2019-02-14T16:52:23.583Z,5.54
2019-02-14T16:55:26.283Z,5.50
2019-02-14T16:58:28.837Z,5.38
2019-02-14T17:01:31.383Z,5.37
2019-02-14T17:04:34.643Z,5.37
2019-02-14T17:07:37.197Z,5.35
2019-02-14T17:10:39.919Z,5.37
2019-02-14T17:13:42.586Z,5.33
2019-02-14T17:16:45.177Z,5.22
2019-02-14T17:19:47.838Z,5.50
2019-02-14T17:22:50.770Z,5.36
2019-02-14T17:25:53.384Z,5.33
2019-02-14T17:28:56.279Z,5.28
2019-02-14T17:31:59.035Z,5.45
2019-02-14T17:35:01.797Z,5.57
2019-02-14T17:38:05.845Z,5.47
2019-02-14T17:41:08.703Z,5.65
2019-02-14T17:44:11.366Z,5.75
2019-02-14T17:47:14.029Z,5.56
2019-02-14T17:50:16.633Z,5.27
2019-02-14T17:53:19.269Z,5.45
2019-02-14T17:56:21.902Z,5.61
2019-02-14T17:59:24.660Z,5.48
2019-02-14T18:02:28.665Z,5.67
2019-02-14T18:05:31.713Z,5.35
2019-02-14T18:08:34.389Z,5.63
2019-02-14T18:11:37.203Z,5.96
2019-02-14T18:14:39.845Z,5.72
2019-02-14T18:17:42.443Z,5.89
2019-02-14T18:20:45.063Z,5.65
2019-02-14T18:23:47.759Z,5.46
2019-02-14T18:26:50.543Z,5.64
2019-02-14T18:29:53.296Z,5.54
2019-02-14T18:32:55.944Z,5.66
2019-02-14T18:35:58.653Z,5.51
2019-02-14T18:39:01.240Z,5.34
2019-02-14T18:42:04.589Z,5.26
2019-02-14T18:45:09.874Z,5.35
2019-02-14T18:48:15.378Z,5.24
2019-02-14T18:51:18.130Z,5.22
2019-02-14T18:54:23.064Z,5.10
2019-02-14T18:57:26.019Z,5.18
2019-02-14T19:00:28.693Z,5.30
2019-02-14T19:03:31.468Z,5.16
2019-02-14T19:06:34.189Z,5.25
2019-02-14T19:09:36.900Z,5.06
2019-02-14T19:12:39.544Z,5.10
2019-02-14T19:15:42.335Z,4.89
2019-02-14T19:18:45.009Z,4.98
2019-02-14T19:21:48.392Z,5.05
2019-02-14T19:24:51.039Z,5.09
2019-02-14T19:27:53.620Z,4.96
2019-02-14T19:30:56.362Z,4.87
2019-02-14T19:34:01.164Z,4.93
2019-02-14T19:37:03.893Z,4.69
2019-02-14T19:40:06.798Z,5.22
2019-02-14T19:43:09.584Z,5.48
2019-02-14T19:46:12.236Z,5.20
2019-02-14T19:49:15.209Z,5.11
2019-02-14T19:52:17.844Z,4.82
2019-02-14T19:55:20.688Z,4.94
2019-02-14T19:58:23.358Z,4.87
2019-02-14T20:01:26.885Z,5.25
2019-02-14T20:04:29.651Z,4.77
2019-02-14T20:07:32.273Z,5.18
2019-02-14T20:10:34.944Z,4.69
2019-02-14T20:13:39.813Z,4.69
2019-02-14T20:16:42.574Z,4.76
2019-02-14T20:19:45.289Z,4.44
2019-02-14T20:22:48.074Z,4.68
2019-02-14T20:25:51.788Z,4.59
2019-02-14T20:28:54.395Z,4.34
2019-02-14T20:31:57.070Z,4.23
2019-02-14T20:35:01.800Z,4.44
2019-02-14T20:38:04.311Z,4.53
2019-02-14T20:41:06.938Z,4.82
2019-02-14T20:44:09.644Z,4.94
2019-02-14T20:47:12.312Z,5.06
2019-02-14T20:50:15.086Z,4.94
2019-02-14T20:53:17.840Z,4.87
2019-02-14T20:56:21.699Z,5.15
2019-02-14T20:59:24.463Z,5.15
2019-02-14T21:02:27.297Z,5.09
2019-02-14T21:05:30.289Z,5.07
2019-02-14T21:08:32.944Z,5.07
2019-02-14T21:11:35.728Z,5.06
2019-02-14T21:14:38.464Z,4.87
2019-02-14T21:17:41.192Z,4.76
2019-02-14T21:20:43.932Z,4.66
2019-02-14T21:23:46.642Z,4.72
2019-02-14T21:26:49.302Z,4.57
2019-02-14T21:29:52.037Z,4.69
2019-02-14T21:32:57.938Z,4.54
2019-02-14T21:36:00.469Z,4.42
2019-02-14T21:39:04.821Z,4.51
2019-02-14T21:42:19.705Z,4.42
2019-02-14T21:45:14.733Z,4.28
2019-02-14T21:48:17.282Z,4.41
2019-02-14T21:51:22.944Z,4.26
2019-02-14T21:54:25.524Z,4.48
2019-02-14T21:57:34.197Z,4.65
2019-02-14T22:00:36.968Z,4.33
2019-02-14T22:03:39.670Z,4.49
2019-02-14T22:06:43.507Z,4.39
2019-02-14T22:09:46.232Z,4.50
2019-02-14T22:12:49.006Z,4.32
2019-02-14T22:15:58.120Z,4.22
2019-02-14T22:19:02.480Z,4.22
2019-02-14T22:22:05.261Z,4.12
2019-02-14T22:25:08.088Z,4.03
2019-02-14T22:28:10.788Z,3.92
2019-02-14T22:31:13.495Z,3.83
2019-02-14T22:34:16.179Z,3.79
2019-02-14T22:37:18.840Z,3.79
2019-02-14T22:40:21.590Z,3.71
2019-02-14T22:43:24.405Z,3.74
2019-02-14T22:46:27.041Z,3.80
2019-02-14T22:49:29.749Z,3.92
2019-02-14T22:52:33.314Z,3.75
2019-02-14T22:55:35.951Z,3.76
2019-02-14T22:58:38.542Z,4.05
2019-02-14T23:01:43.820Z,4.33
2019-02-14T23:04:46.806Z,4.33
2019-02-14T23:07:49.393Z,4.49
2019-02-14T23:10:53.812Z,4.54
2019-02-14T23:13:56.458Z,4.42
2019-02-14T23:16:59.009Z,4.43
2019-02-14T23:20:01.686Z,4.39
2019-02-14T23:23:04.375Z,4.29
2019-02-14T23:26:06.950Z,4.57
2019-02-14T23:29:09.555Z,4.49
2019-02-14T23:32:12.187Z,4.59
2019-02-14T23:35:14.833Z,4.36
2019-02-14T23:38:17.378Z,4.34
2019-02-14T23:41:20.003Z,4.41
2019-02-14T23:44:22.790Z,4.24
2019-02-14T23:47:25.373Z,4.50
2019-02-14T23:50:27.959Z,4.60
2019-02-14T23:53:30.526Z,4.46
2019-02-14T23:56:33.178Z,4.30
2019-02-14T23:59:35.855Z,4.12
